Main page
METAR-TAF:

METAR-TAF

Airports :

RAF Brize Norton

Brize Norton, England

latitude: 51-45N, longitude: 001-35W, elevation: 88 m

Current weather observation

The report was made 29 minutes ago, at 22:50 UTC
Wind 3 kt from the North/Northeast
Temperature 13°C
Humidity 72%
Pressure 1001 hPa
Visibility 10 km or more
no clouds below 1500 m and no cumulonimbus

METAR: EGVN 222250Z 03003KT CAVOK 13/08 Q1001 NOSIG

Time: 00:19 (23:19 UTC)

Forecast

The report was made 4 hours and 2 minutes ago, at 19:17 UTC
Forecast valid from 22 at 21 UTC to 23 at 21 UTC
Wind 3 kt from variable directions
Visibility 10 km or more
no clouds below 1500 m and no cumulonimbus
Probability 30%
from 23 at 02 UTC to 23 at 08 UTC
Visibility: 7000 m
haze

TAF: EGVN 221917Z 2221/2321 VRB03KT CAVOK PROB30 2302/2308 7000 HZ

Weather observations and forecasts of more than 4000 airports (METAR and TAF reports).

The available stations are represented by yellow and red dots on the map.

Hover mouse over dot to see the name of the station.

Then click to see weather observations and forecasts.

To change the map : click on the green buttons with a black cross to zoom in, on the green button with a dash to zoom out, or on the green arrows for adjacent maps.


METAR-TAF: